Las Palmas de Gran Canaria, Canary Islands

1:05 PM WEST en Agosto 21, 2014 (GMT +0100)
Gran Canaria | Change Station
CLOSE
Current Station
Estación meteorológica personal
Location: Gran Canaria, Canary Islands
Altura: 30 ft
Estaciones meteorológicas cercanas

Alt 30 ft 28.00 °N, 15.37 °W | Updated 2 seconds ago

Clear
Despejado
78.3 ° F
Sensación térmica 81 ° F
N
5.8
Viento Variable Viento desde Sur
Gusts 5.8 mph

Hoy
Alta -- | Baja -- ° F
--% Posibilidad de precipitaciones
Ayer
Alta -- | Baja -- ° F
Precip. -- pul
7:34 AM 8:34 PM
Creciente menguante, 14% visible
Presión 30.06 pul
Visibilidad -9999.0 Millas
Nubes
Índice de calor 81 ° F
Punto de rocío 71 ° F
Humedad 78%
Precipitaciones 0.00 pul
Espesor de la nieve No disponible.
UV No disponible.
Polen No disponible.
Calidad del aire No disponible.
Flu Activity No disponible.
METAR GCLP 211130Z 03017KT CAVOK 26/21 Q1018 NOSIG

More Conditions Fewer Conditions

Presión 30.06 pul
Visibilidad -9999.0 Millas
Nubes
Índice de calor 81 ° F
Punto de rocío 71 ° F
Humedad 78%
Precipitaciones 0.00 pul
Espesor de la nieve No disponible.
UV No disponible.
Polen No disponible.
Calidad del aire No disponible.
Flu Activity No disponible.
METAR GCLP 211130Z 03017KT CAVOK 26/21 Q1018 NOSIG

More Conditions Fewer Conditions

10-Day Weather Forecast

Almanac

Astronomía

Aug. 21, 2014 Salida Puesta
Hora real 7:34 AM WEST 8:34 PM WEST
Crepúsculo civil 7:10 AM WEST 8:58 PM WEST
Crepúsculo náutico 6:41 AM WEST 9:27 PM WEST
Crepúsculo astronómico 6:12 AM WEST 9:56 PM WEST
Luna 4:03 AM WEST 5:46 PM WEST
Horas de luz 13h 48m
Horas de luz
12h 59m
Tomorrow will be 1m 31s shorter.
Creciente menguante, 14% of the Moon is Illuminated
Hoy
Creciente menguante
Ago 25
Nueva
Sep 2
Cuarto creciente
Sep 8
Luna llena
Sep 15
Cuarto menguante

Extremos de ayer

Máximos del país Bajas del país

Community

WunderPhotos

Upload Photos

1,745,882 ¡fotos cargadas!

Nearby

Calidad del aire

Not available.

Grosos de nieve

Not available.

Actividad de terremotos

Ciudad Distance Mag. Tiempo y dato
No hay informes recientes de la actividad sísmica.
Magnitud mínima muestra es 2,5.

Temperaturas de aguas costeras

Lugar Temperatura
Sin partes meteorológicos de las estaciones

Estaciones meteorológicas cercanas